Discovery Triathlon Duathlon Cape Town
Skip Navigation Links
Results
Course Map
Details
10 Feb 2019
HyperLink
Page 1 of 3 (102 items)
[1]23
Pos
Race No
Fav
Photo
Name
Time
Category
Cat Pos
Gender
Gen Pos
Wave
Start Time
Run1
T1
Cycle
T2
Run2
14090Nicole BIRCH00:02:54Unknown1Female1Green - School Indiv12:00:0000:02:54
24024Deon BOCHNIG00:35:43School Ind1Male1Green - School Indiv12:00:0000:06:4300:00:4600:19:1500:00:4200:08:16
34031Oliver FINLEY00:36:41School Ind2Male2Green - School Indiv12:00:0000:06:4300:01:0000:19:3000:00:5200:08:35
44086Bahle DWANGU00:38:49School Ind3Male3Green - School Indiv12:00:0000:08:5000:01:5000:17:3600:01:4300:08:48
54232TEAM Team Nolands00:38:52Team1Male4Green - Teams12:00:0000:08:0400:01:1200:19:3700:00:5300:09:04
64089Leon TROM00:39:01School Ind4Male5Green - School Indiv12:00:0000:08:5000:01:5100:17:3400:01:4600:08:57
74077Linel ENGELBRECHT00:39:19School Ind1Female2Green - School Indiv12:00:0000:07:5600:00:5300:19:3000:00:4900:10:10
84223TEAM KPS 1100:39:49Team School1Male6Green - School Teams12:00:0000:07:4500:00:3800:22:0400:00:3300:08:47
94205TEAM TEAM KERSHAW00:40:14Team2Male7Green - Teams12:00:0000:08:0100:00:5600:21:3100:00:4800:08:56
104088Sanda NCAWA00:40:38School Ind5Male8Green - School Indiv12:00:0000:08:4900:01:5100:17:3700:01:4400:10:34
114038Carl VAN EDEN00:40:38School Ind6Male9Green - School Indiv12:00:0000:07:1600:01:0400:22:1500:00:4800:09:14
124003Kenneth BREUKEL00:40:43Ind1Male10Green - Men and Women12:00:0000:08:0300:01:2400:19:2700:01:3800:10:10
134084Grace GOODWIN00:40:47School Ind2Female3Green - School Indiv12:00:0000:07:4000:00:5000:22:4100:00:4100:08:54
144207TEAM VLIETMAN 100:41:22Team3Male11Green - Teams12:00:0000:09:1100:00:4600:19:3700:00:3800:11:08
154083Gregory BUNN00:41:50School Ind7Male12Green - School Indiv12:00:0000:07:3300:00:5000:22:4300:00:4800:09:54
164219TEAM SH 1TEAM00:42:18Team School1Mixed1Green - School Teams12:00:0000:08:3200:00:4500:23:0700:00:4500:09:08
174047Monique BRYNARD00:42:49Ind1Female4Green - Men and Women12:00:0000:08:0700:00:4700:23:0400:00:4300:10:07
184026Jude CADMAN00:43:07School Ind8Male13Green - School Indiv12:00:0000:07:4200:01:1100:23:3200:00:5100:09:49
194210TEAM BISHOPS STARS00:43:31Team School2Male14Green - School Teams12:00:0000:07:4700:01:0800:25:0400:01:0300:08:27
204228TEAM KPS 500:43:36Team School3Male15Green - School Teams12:00:0000:09:05743:53:5500:31:4600:00:3300:08:15
214226TEAM KPS 300:43:54Team School4Male16Green - School Teams12:00:0000:08:3800:00:3900:22:1200:00:4300:11:40
224037Jahiem THAVER00:44:14School Ind9Male17Green - School Indiv12:00:0000:07:4100:01:0400:21:3500:01:0500:12:48
234012Phemelo MZONDEKI00:44:15Ind2Male18Green - Men and Women12:00:0000:09:0600:01:2600:21:2200:01:2000:10:59
244206TEAM THE TWINS00:44:18Team1Female5Green - Teams12:00:0000:09:5700:00:5700:21:1600:01:0000:11:07
254208TEAM VLIETMAN 200:44:28Team4Male19Green - Teams12:00:0000:09:3300:00:3600:22:5000:00:4600:10:41
264081Nicola SCHERNER00:44:38School Ind3Female6Green - School Indiv12:00:0000:08:3500:01:0400:22:4600:00:5300:11:17
274076Carla BOCHNIG00:44:49School Ind4Female7Green - School Indiv12:00:0000:07:4300:00:5900:25:0500:00:4200:10:16
284030Ethan Michael FERREIRA00:44:56School Ind10Male20Green - School Indiv12:00:0000:07:3700:01:2000:25:0500:01:0700:09:45
294224TEAM KPS 1300:44:56Team School5Male21Green - School Teams12:00:0000:09:1800:00:3700:25:2500:00:5200:08:42
304005Ettienne COETZEE 00:45:13Ind3Male22Green - Men and Women12:00:0000:08:5100:01:3700:22:4700:01:3600:10:19
314203TEAM KINETIC STS00:45:28Team5Male23Green - Teams12:00:0000:07:2100:00:4300:27:4400:00:4100:08:57
324018Michael PEINKE00:45:29Ind4Male24Green - Men and Women12:00:0000:08:0500:01:3800:23:1700:01:4700:10:40
334216TEAM KPS 1700:46:04Team School6Male25Green - School Teams12:00:0000:07:3400:01:0000:27:4800:00:4700:08:53
344034Oliver LEIBBRANDT00:46:27School Ind11Male26Green - School Indiv12:00:0000:08:5300:00:5500:24:5200:00:4900:10:56
354029Marco Ross FERREIRA00:46:30School Ind12Male27Green - School Indiv12:00:0000:08:2800:01:0300:24:2100:00:5600:11:40
364056Conita HENRY00:46:38Ind2Female8Green - Men and Women12:00:0000:10:0400:01:1100:23:2100:01:1100:10:50
374014Gioanni NOMDO00:48:17Ind5Male28Green - Men and Women12:00:0000:09:0600:02:2000:21:2900:01:5000:13:30
384023Glyn TAYLOR00:48:39Ind6Male29Green - Men and Women12:00:0000:10:1100:01:0600:24:0400:01:1500:12:00
394059Manja JASPERS00:48:44Ind3Female9Green - Men and Women12:00:0000:10:5900:01:2500:22:0900:01:2000:12:49
404231TEAM REDDAM TEAM 500:48:50Team School2Mixed2Green - School Teams12:00:0000:10:4600:00:4500:24:4400:00:4800:11:46
414229TEAM KPS 600:49:11Team School1Female10Green - School Teams12:00:0000:10:1500:00:3100:26:5400:00:3500:10:54
424085Ryan ISSEROW00:49:29School Ind13Male30Green - School Indiv12:00:0000:09:1800:01:5200:23:1800:01:3500:13:23
434035Max LYNN00:50:27School Ind14Male31Green - School Indiv12:00:0000:10:2300:00:5900:24:5800:00:5900:13:06
444078Leya PATEL00:50:29School Ind5Female11Green - School Indiv12:00:0000:08:5200:01:1900:26:1100:01:0200:13:03
454044Deborah BLAKE00:50:38Ind4Female12Green - Men and Women12:00:0000:09:1500:01:3600:25:5500:01:5900:11:51
464045Rene Ann BRINK00:51:01Ind5Female13Green - Men and Women12:00:0000:11:2000:01:2800:23:4200:01:0500:13:25
474221TEAM KPS 100:51:34Team School2Female14Green - School Teams12:00:0000:11:4100:00:3100:26:0500:00:4600:12:29
484070Leanne SHELTON00:51:41Ind6Female15Green - Men and Women12:00:0000:10:0400:01:2900:25:5500:01:2000:12:51
494213TEAM KPS 1400:51:49Team School7Male32Green - School Teams12:00:0000:09:2600:00:5000:29:2500:00:5300:11:13
504214TEAM KPS 1500:52:22Team School8Male33Green - School Teams12:00:0000:11:0700:00:3900:29:4800:00:3200:10:14
Page 1 of 3 (102 items)
[1]23
fb

HyperLink Copyright (c) G Vincent, 2018